Time;durP1;ratioP1;P1;durP2;ratioP2;P2;SDS_P1;SDS_P2;PMS_P1;PMS_P2;Temp;Humidity;BMP_temperature;BMP_pressure;BME280_temperature;BME280_humidity;BME280_pressure;Samples;Min_cycle;Max_cycle;Signal;HPM_P1;HPM_P2
2022/12/27 05:31:40;;;;;;;;;5.67;4.33;;;;;7.54;81.13;102569.16;6220894;22;45866;-66
2022/12/27 05:34:05;;;;;;;;;6.00;3.33;;;;;7.53;81.47;102564.75;6219613;22;45186;-65
2022/12/27 05:36:31;;;;;;;;;4.33;4.33;;;;;7.53;81.45;102551.50;6220248;22;45988;-65
2022/12/27 05:38:57;;;;;;;;;7.33;6.33;;;;;7.48;81.48;102553.31;6247042;22;45355;-66
2022/12/27 05:41:24;;;;;;;;;8.33;6.00;;;;;7.48;81.74;102550.69;6247226;22;45289;-67
2022/12/27 05:43:49;;;;;;;;;5.00;4.00;;;;;7.48;81.59;102558.63;6246833;22;45329;-67
2022/12/27 05:46:20;;;;;;;;;6.00;4.00;;;;;7.49;81.59;102557.75;6247313;22;45295;-65
2022/12/27 05:48:46;;;;;;;;;8.33;5.33;;;;;7.48;81.54;102550.69;6246788;22;45261;-65
2022/12/27 05:51:14;;;;;;;;;6.00;6.00;;;;;7.49;81.72;102555.94;6247167;22;45287;-66
2022/12/27 05:53:39;;;;;;;;;7.67;5.00;;;;;7.49;81.65;102553.31;6219592;22;45485;-66
2022/12/27 05:56:06;;;;;;;;;6.33;5.33;;;;;7.47;81.98;102551.56;6246161;22;45313;-65
2022/12/27 05:58:32;;;;;;;;;8.67;4.67;;;;;7.48;81.43;102553.31;6247082;22;45350;-67
2022/12/27 06:00:59;;;;;;;;;4.33;2.00;;;;;7.47;81.54;102546.28;6245608;22;45300;-66
2022/12/27 06:03:24;;;;;;;;;4.67;4.67;;;;;7.46;81.57;102537.47;6247169;22;45411;-67
2022/12/27 06:05:49;;;;;;;;;8.00;8.00;;;;;7.45;81.75;102535.69;6245692;22;46186;-66
2022/12/27 06:08:15;;;;;;;;;7.67;7.33;;;;;7.42;81.66;102531.31;6246089;22;62033;-66
2022/12/27 06:10:40;;;;;;;;;7.33;5.67;;;;;7.41;81.70;102533.97;6219783;22;45246;-66
2022/12/27 06:13:05;;;;;;;;;5.00;4.33;;;;;7.41;82.10;102528.69;6246084;22;49554;-67
2022/12/27 06:15:31;;;;;;;;;6.00;5.00;;;;;7.41;81.87;102536.63;6219482;22;59689;-67
2022/12/27 06:17:57;;;;;;;;;9.33;8.00;;;;;7.42;81.97;102535.72;6246276;22;57477;-67
2022/12/27 06:20:23;;;;;;;;;4.00;3.33;;;;;7.42;82.06;102539.25;6246812;22;45220;-66
2022/12/27 06:22:48;;;;;;;;;6.00;2.67;;;;;7.43;81.87;102540.13;6246211;22;55198;-66
2022/12/27 06:25:14;;;;;;;;;7.00;5.00;;;;;7.44;81.78;102540.13;6246362;22;65194;-66
2022/12/27 06:27:39;;;;;;;;;3.00;3.00;;;;;7.45;81.82;102551.59;6246970;22;45296;-66
2022/12/27 06:30:06;;;;;;;;;5.67;4.00;;;;;7.46;81.86;102545.41;6245533;22;57068;-66
2022/12/27 06:32:32;;;;;;;;;5.67;4.00;;;;;7.49;82.06;102547.16;6245976;22;45619;-66
2022/12/27 06:34:58;;;;;;;;;4.00;4.00;;;;;7.48;81.85;102548.03;6245921;22;46233;-66
2022/12/27 06:37:23;;;;;;;;;4.33;3.00;;;;;7.49;82.01;102550.66;6246004;22;63345;-66
2022/12/27 06:39:49;;;;;;;;;4.67;3.00;;;;;7.50;82.10;102544.47;6245852;22;56515;-66
2022/12/27 06:42:14;;;;;;;;;2.33;2.33;;;;;7.49;82.06;102536.56;6246785;22;45154;-66
2022/12/27 06:44:40;;;;;;;;;12.00;6.00;;;;;7.49;82.25;102541.84;6246179;22;45846;-66
2022/12/27 06:47:05;;;;;;;;;4.00;4.00;;;;;7.49;82.06;102542.72;6245448;22;59268;-66
2022/12/27 06:49:30;;;;;;;;;5.00;5.00;;;;;7.49;82.30;102539.19;6245865;22;59575;-66
2022/12/27 06:51:56;;;;;;;;;8.33;8.33;;;;;7.50;82.25;102540.97;6243725;22;61784;-66
2022/12/27 06:54:22;;;;;;;;;8.00;5.00;;;;;7.53;82.18;102546.22;6245858;22;54853;-66
2022/12/27 06:56:47;;;;;;;;;8.00;4.00;;;;;7.54;82.37;102553.28;6245913;22;45536;-66
2022/12/27 06:59:12;;;;;;;;;10.67;6.33;;;;;7.55;82.00;102549.75;6245992;22;60121;-66
2022/12/27 07:01:37;;;;;;;;;9.00;6.00;;;;;7.57;82.30;102547.94;6245865;22;45298;-66
2022/12/27 07:04:03;;;;;;;;;4.33;4.33;;;;;7.56;82.58;102557.66;6245328;22;64331;-66
2022/12/27 07:06:30;;;;;;;;;8.33;5.33;;;;;7.60;82.22;102542.59;6246371;22;45302;-66
2022/12/27 07:08:56;;;;;;;;;10.67;6.33;;;;;7.61;82.20;102541.72;6218853;22;45306;-66
2022/12/27 07:11:22;;;;;;;;;11.67;8.00;;;;;7.62;82.25;102539.03;6219794;22;45392;-66
2022/12/27 07:13:50;;;;;;;;;8.33;4.67;;;;;7.65;82.12;102543.44;6245774;22;46161;-66
2022/12/27 07:16:18;;;;;;;;;4.33;4.33;;;;;7.68;82.02;102543.44;6246653;22;45354;-66
2022/12/27 07:18:44;;;;;;;;;8.33;7.00;;;;;7.69;82.01;102546.94;6219504;22;45421;-66
2022/12/27 07:21:15;;;;;;;;;6.67;5.33;;;;;7.70;81.88;102538.97;6244814;22;45881;-66
2022/12/27 07:23:40;;;;;;;;;4.33;4.33;;;;;7.72;81.62;102553.09;6218136;22;45224;-66
2022/12/27 07:26:18;;;;;;;;;7.33;7.33;;;;;7.73;81.72;102554.84;6244480;22;45301;-66
2022/12/27 07:28:43;;;;;;;;;9.67;8.00;;;;;7.75;81.79;102561.00;6244947;22;45587;-66
2022/12/27 07:31:13;;;;;;;;;9.00;8.33;;;;;7.75;81.48;102561.00;6245001;22;45296;-66
2022/12/27 07:33:39;;;;;;;;;8.33;6.33;;;;;7.75;81.60;102555.69;6243919;22;45281;-67
2022/12/27 07:36:15;;;;;;;;;11.33;8.00;;;;;7.76;81.77;102557.47;6245407;22;45382;-64
2022/12/27 07:38:41;;;;;;;;;8.00;4.67;;;;;7.77;81.52;102556.56;6243045;22;45481;-64
2022/12/27 07:41:06;;;;;;;;;7.67;5.33;;;;;7.81;81.37;102559.19;6217850;22;45284;-64
2022/12/27 07:43:33;;;;;;;;;10.00;6.33;;;;;7.86;81.14;102562.66;6221897;22;45375;-65
2022/12/27 07:46:10;;;;;;;;;5.67;5.33;;;;;7.85;80.81;102553.84;6192789;22;45326;-64
2022/12/27 07:48:36;;;;;;;;;8.00;6.67;;;;;7.87;80.58;102562.63;6219561;22;45319;-64
2022/12/27 07:51:02;;;;;;;;;10.00;6.00;;;;;7.91;80.61;102568.78;6245211;22;55246;-63
2022/12/27 07:53:27;;;;;;;;;11.33;6.67;;;;;7.92;80.51;102565.25;6219369;22;45277;-64
2022/12/27 07:55:53;;;;;;;;;6.67;6.67;;;;;7.91;80.31;102560.84;6246363;22;45272;-64
2022/12/27 07:58:19;;;;;;;;;8.00;5.00;;;;;7.92;80.30;102571.41;6243718;22;58397;-64
2022/12/27 08:00:46;;;;;;;;;11.00;7.33;;;;;7.96;80.35;102569.63;6195334;22;45253;-64
2022/12/27 08:03:12;;;;;;;;;5.00;4.67;;;;;7.98;80.21;102564.28;6219737;22;45604;-64
2022/12/27 08:05:44;;;;;;;;;6.00;6.00;;;;;8.00;80.34;102563.38;6218205;22;45476;-64
2022/12/27 08:08:11;;;;;;;;;10.00;6.67;;;;;8.03;80.32;102565.13;6246795;22;45499;-64
2022/12/27 08:10:36;;;;;;;;;12.67;8.33;;;;;8.04;80.14;102556.28;6219349;22;45339;-64
2022/12/27 08:13:01;;;;;;;;;10.00;8.00;;;;;8.08;80.37;102568.59;6245201;22;45237;-64
2022/12/27 08:15:27;;;;;;;;;5.67;4.00;;;;;8.09;80.11;102562.41;6244244;22;59534;-64
2022/12/27 08:17:52;;;;;;;;;10.33;9.67;;;;;8.10;80.05;102559.72;6245161;22;60484;-64
2022/12/27 08:20:27;;;;;;;;;8.67;7.67;;;;;8.13;79.92;102569.44;6245303;22;53248;-64
2022/12/27 08:22:52;;;;;;;;;4.33;4.33;;;;;8.16;79.98;102571.16;6245636;22;45288;-64
2022/12/27 08:25:18;;;;;;;;;5.33;5.33;;;;;8.18;79.86;102569.38;6217837;22;55662;-64
2022/12/27 08:27:43;;;;;;;;;10.00;6.00;;;;;8.18;79.81;102562.31;6244968;22;54472;-64
2022/12/27 08:30:09;;;;;;;;;9.67;7.67;;;;;8.19;79.91;102568.50;6246321;22;45236;-64
2022/12/27 08:32:34;;;;;;;;;9.00;7.00;;;;;8.18;80.00;102564.94;6244653;22;45954;-64
2022/12/27 08:35:00;;;;;;;;;9.67;8.67;;;;;8.19;79.95;102569.38;6243700;22;64098;-64
2022/12/27 08:37:25;;;;;;;;;9.00;6.00;;;;;8.19;80.08;102566.72;6245048;22;59482;-64
2022/12/27 08:39:50;;;;;;;;;8.00;7.67;;;;;8.19;79.99;102572.00;6218068;22;45332;-64
2022/12/27 08:42:16;;;;;;;;;10.00;6.00;;;;;8.21;80.15;102572.88;6244808;22;59350;-64
2022/12/27 08:44:41;;;;;;;;;9.33;6.00;;;;;8.25;80.09;102584.31;6245249;22;59839;-64
2022/12/27 08:47:06;;;;;;;;;11.00;8.67;;;;;8.31;80.12;102589.53;6218125;22;45352;-64
2022/12/27 08:49:32;;;;;;;;;6.00;6.00;;;;;8.37;80.11;102584.19;6215776;22;45305;-64
2022/12/27 08:51:57;;;;;;;;;13.33;9.00;;;;;8.40;79.99;102584.13;6243191;22;45688;-64
2022/12/27 08:54:23;;;;;;;;;9.00;6.33;;;;;8.45;80.00;102576.13;6217580;22;45352;-63
2022/12/27 08:56:48;;;;;;;;;9.67;9.00;;;;;8.52;79.98;102582.25;6245358;22;45213;-64
2022/12/27 08:59:14;;;;;;;;;10.67;9.00;;;;;8.57;79.79;102578.63;6217350;22;45196;-64
2022/12/27 09:01:39;;;;;;;;;10.33;7.67;;;;;8.61;79.20;102590.97;6218827;22;45368;-63
2022/12/27 09:04:04;;;;;;;;;6.67;5.67;;;;;8.62;78.88;102586.53;6243817;22;57798;-64
2022/12/27 09:06:30;;;;;;;;;15.00;12.00;;;;;8.65;78.92;102588.28;6217880;22;59455;-64
2022/12/27 09:08:55;;;;;;;;;6.00;6.00;;;;;8.72;79.02;102598.78;6245485;22;45546;-64
2022/12/27 09:11:24;;;;;;;;;11.67;7.67;;;;;8.82;79.18;102596.88;6214915;22;45865;-64
2022/12/27 09:13:49;;;;;;;;;7.00;7.00;;;;;8.89;78.94;102595.91;6217533;22;45285;-64
2022/12/27 09:16:17;;;;;;;;;9.33;7.33;;;;;8.98;78.58;102597.53;6214838;22;45363;-64
2022/12/27 09:18:43;;;;;;;;;12.00;6.33;;;;;9.04;78.49;102597.44;6242697;22;45579;-64
2022/12/27 09:21:12;;;;;;;;;8.67;6.00;;;;;9.12;78.22;102593.81;6214884;22;46753;-64
2022/12/27 09:23:38;;;;;;;;;8.67;6.67;;;;;9.19;77.89;102588.38;6216389;22;45324;-64
2022/12/27 09:26:21;;;;;;;;;11.00;8.67;;;;;9.34;77.66;102597.00;6216331;22;45379;-64
2022/12/27 09:28:48;;;;;;;;;10.67;6.00;;;;;9.51;77.28;102596.72;6216296;22;45430;-65
2022/12/27 09:31:14;;;;;;;;;6.33;6.33;;;;;9.65;76.48;102607.97;6215367;22;45788;-64
2022/12/27 09:33:40;;;;;;;;;7.67;5.00;;;;;9.74;75.43;102614.91;6242211;22;45651;-64
2022/12/27 09:36:07;;;;;;;;;11.00;6.33;;;;;9.77;75.36;102615.72;6217274;22;45304;-64
2022/12/27 09:38:33;;;;;;;;;7.00;4.00;;;;;9.77;74.98;102612.19;6216958;22;45647;-64
2022/12/27 09:41:01;;;;;;;;;4.67;4.67;;;;;9.79;74.71;102623.69;6244490;22;45265;-64
2022/12/27 09:44:17;;;;;;;;;4.33;4.33;;;;;9.82;74.09;102623.63;6217630;22;45164;-64
2022/12/27 09:46:48;;;;;;;;;5.00;4.00;;;;;9.79;74.22;102607.75;6182281;23;45309;-64
2022/12/27 09:49:29;;;;;;;;;5.33;5.33;;;;;9.82;73.73;102612.13;6239323;22;45229;-64
2022/12/27 09:52:06;;;;;;;;;6.33;5.67;;;;;9.87;73.95;102604.94;6245644;22;45348;-65
2022/12/27 09:54:39;;;;;;;;;6.67;6.67;;;;;9.97;73.54;102605.63;6219409;22;45535;-64
2022/12/27 09:57:15;;;;;;;;;8.00;5.67;;;;;10.09;73.46;102603.63;6216489;22;45612;-66
2022/12/27 09:59:46;;;;;;;;;3.00;2.67;;;;;10.37;73.19;102603.09;6245582;22;45212;-64
2022/12/27 10:02:21;;;;;;;;;9.00;5.67;;;;;10.98;73.26;102602.69;6219414;22;45474;-63
2022/12/27 10:04:47;;;;;;;;;9.00;7.00;;;;;11.91;70.89;102595.94;6244663;22;45251;-64
2022/12/27 10:07:23;;;;;;;;;12.67;6.00;;;;;13.04;69.51;102594.44;6244269;22;45345;-64
2022/12/27 10:09:57;;;;;;;;;12.00;8.67;;;;;13.55;65.84;102584.78;6217748;22;45353;-64
2022/12/27 10:12:25;;;;;;;;;8.33;6.00;;;;;13.22;66.06;102585.81;6216787;22;45355;-65
2022/12/27 10:15:03;;;;;;;;;6.33;6.00;;;;;12.83;66.49;102579.97;6245195;22;45626;-64
2022/12/27 10:17:52;;;;;;;;;6.67;6.67;;;;;12.83;67.67;102575.50;6219400;22;45561;-64
2022/12/27 10:20:48;;;;;;;;;6.33;4.67;;;;;13.74;67.25;102577.00;6244657;22;45261;-64
2022/12/27 10:23:20;;;;;;;;;6.33;6.00;;;;;14.71;64.40;102570.72;6245374;22;45283;-65
2022/12/27 10:25:45;;;;;;;;;5.00;5.00;;;;;14.61;62.90;102569.31;6218978;22;45325;-64
2022/12/27 10:28:26;;;;;;;;;6.67;3.00;;;;;14.55;64.17;102572.25;6219705;22;45200;-63
2022/12/27 10:30:52;;;;;;;;;6.00;5.67;;;;;15.48;62.98;102563.16;6217273;22;45402;-64
2022/12/27 10:33:26;;;;;;;;;6.00;5.33;;;;;16.81;61.30;102571.44;6246600;22;46179;-63
2022/12/27 10:35:52;;;;;;;;;9.00;6.67;;;;;17.62;58.17;102568.34;6219130;22;45412;-65
2022/12/27 10:38:18;;;;;;;;;8.00;6.33;;;;;18.11;55.79;102569.44;6219593;22;45360;-65
2022/12/27 10:40:55;;;;;;;;;5.00;4.33;;;;;17.75;56.19;102570.41;6246546;22;45301;-65
2022/12/27 10:43:25;;;;;;;;;5.00;5.00;;;;;18.16;55.56;102575.41;6219822;22;46333;-65
2022/12/27 10:45:52;;;;;;;;;8.00;7.00;;;;;19.15;54.35;102556.44;6218808;22;45298;-64
2022/12/27 10:48:19;;;;;;;;;7.00;6.00;;;;;20.19;52.35;102558.31;6218731;22;62446;-65
2022/12/27 10:50:47;;;;;;;;;8.33;7.00;;;;;21.09;52.15;102556.09;6245666;22;45170;-64
2022/12/27 10:53:35;;;;;;;;;6.00;5.67;;;;;21.86;49.04;102556.25;6219911;22;46056;-64
2022/12/27 10:56:11;;;;;;;;;6.00;6.00;;;;;22.46;47.98;102565.53;6245059;22;45412;-64
2022/12/27 10:58:40;;;;;;;;;4.33;4.33;;;;;22.84;46.54;102566.41;6246923;22;45287;-64
2022/12/27 11:01:29;;;;;;;;;7.00;4.00;;;;;23.23;45.62;102568.94;6245114;22;45472;-65
2022/12/27 11:04:19;;;;;;;;;7.33;5.33;;;;;23.41;44.06;102566.66;6245619;22;46043;-65
2022/12/27 11:07:01;;;;;;;;;5.67;5.67;;;;;23.68;42.17;102558.22;6218570;22;45175;-65
2022/12/27 11:09:42;;;;;;;;;6.00;3.67;;;;;23.93;41.60;102559.88;6246619;22;45256;-65
2022/12/27 11:12:17;;;;;;;;;4.33;4.33;;;;;24.18;41.55;102560.63;6245908;22;45411;-65
2022/12/27 11:15:12;;;;;;;;;6.67;4.33;;;;;24.29;40.17;102551.63;6245844;22;45335;-65
2022/12/27 11:17:41;;;;;;;;;4.33;4.33;;;;;24.27;40.56;102546.31;6245872;22;45262;-65
2022/12/27 11:20:22;;;;;;;;;2.33;2.00;;;;;24.48;39.41;102540.09;6246212;22;45478;-65
2022/12/27 11:22:50;;;;;;;;;5.33;4.00;;;;;24.53;38.34;102537.00;6245932;22;45332;-64
2022/12/27 11:25:15;;;;;;;;;4.00;2.00;;;;;24.20;36.52;102536.91;6218616;22;47441;-64
2022/12/27 11:27:46;;;;;;;;;2.33;2.33;;;;;24.16;37.37;102530.00;6245633;22;45349;-64
2022/12/27 11:30:31;;;;;;;;;5.33;2.00;;;;;24.32;37.33;102524.19;6219178;22;45190;-64
2022/12/27 11:33:02;;;;;;;;;2.75;2.25;;;;;24.27;36.94;102518.25;6246158;22;45375;-64
2022/12/27 11:35:28;;;;;;;;;1.75;1.50;;;;;24.25;36.53;102499.34;6218865;22;45201;-65
2022/12/27 11:37:54;;;;;;;;;5.00;2.75;;;;;24.02;36.21;102490.34;6245899;22;45272;-65
2022/12/27 11:40:33;;;;;;;;;2.00;2.00;;;;;23.74;35.25;102488.94;6246226;22;45181;-64
2022/12/27 11:43:26;;;;;;;;;4.67;3.33;;;;;23.70;35.09;102491.06;6219552;22;45307;-64
2022/12/27 11:45:53;;;;;;;;;3.33;2.00;;;;;23.72;34.67;102488.22;6216331;22;46365;-64
2022/12/27 11:48:41;;;;;;;;;3.50;2.25;;;;;23.69;33.71;102477.59;6246787;22;45244;-64
2022/12/27 11:51:16;;;;;;;;;2.00;2.00;;;;;23.57;34.78;102485.75;6246506;22;45268;-65
2022/12/27 11:54:06;;;;;;;;;3.00;3.00;;;;;23.50;34.21;102487.22;6246760;22;45319;-65
2022/12/27 11:56:34;;;;;;;;;2.75;2.75;;;;;23.31;33.96;102495.06;6219226;22;46121;-65
2022/12/27 11:59:20;;;;;;;;;8.67;6.00;;;;;23.12;34.57;102483.75;6245424;22;45229;-65
2022/12/27 12:02:07;;;;;;;;;4.00;3.00;;;;;22.98;34.46;102496.66;6246135;22;45276;-64
2022/12/27 12:04:58;;;;;;;;;3.00;2.25;;;;;22.84;35.12;102487.75;6219211;22;45449;-63
2022/12/27 12:07:35;;;;;;;;;8.00;5.67;;;;;22.41;34.77;102491.81;6218971;22;45301;-64
2022/12/27 12:10:22;;;;;;;;;3.00;3.00;;;;;21.96;35.41;102503.16;6245670;22;45300;-64
2022/12/27 12:12:56;;;;;;;;;2.67;2.00;;;;;21.39;35.32;102492.75;6245826;22;45288;-64
2022/12/27 12:15:59;;;;;;;;;2.67;1.33;;;;;20.31;35.31;102496.25;6247252;22;45796;-64
2022/12/27 12:19:02;;;;;;;;;1.33;1.00;;;;;19.56;37.30;102500.97;6246251;22;46263;-64
2022/12/27 12:21:51;;;;;;;;;2.00;2.00;;;;;19.18;38.10;102488.84;6219103;22;45304;-64
2022/12/27 12:24:20;;;;;;;;;3.00;3.00;;;;;18.89;38.23;102488.75;6245968;22;45349;-64
2022/12/27 12:27:13;;;;;;;;;3.67;2.00;;;;;18.69;38.64;102484.47;6218297;22;45398;-63
2022/12/27 12:29:57;;;;;;;;;1.67;1.67;;;;;18.52;38.49;102478.25;6246434;22;45177;-66
2022/12/27 12:32:31;;;;;;;;;1.33;1.33;;;;;18.42;38.24;102468.06;6246040;22;45268;-64
2022/12/27 12:35:03;;;;;;;;;1.67;1.67;;;;;18.15;38.39;102464.16;6246078;22;45261;-64
2022/12/27 12:37:49;;;;;;;;;2.67;1.00;;;;;17.78;37.45;102468.88;6246425;22;45494;-64
2022/12/27 12:40:26;;;;;;;;;4.33;3.00;;;;;17.48;38.92;102457.91;6246154;22;45232;-64
2022/12/27 12:43:16;;;;;;;;;1.67;1.67;;;;;17.17;38.94;102457.72;6245759;22;45380;-63
2022/12/27 12:46:09;;;;;;;;;2.00;2.00;;;;;16.87;38.96;102465.50;6245962;22;45282;-64
2022/12/27 12:48:59;;;;;;;;;2.67;1.00;;;;;16.61;40.38;102459.59;6245726;22;45593;-64
2022/12/27 12:52:02;;;;;;;;;2.00;2.00;;;;;16.33;40.22;102444.81;6246336;22;45202;-64
2022/12/27 12:54:44;;;;;;;;;2.33;1.67;;;;;16.20;40.93;102441.00;6245668;22;45173;-64
2022/12/27 12:57:41;;;;;;;;;2.67;2.67;;;;;16.06;40.93;102432.72;6245292;22;45278;-64
2022/12/27 13:00:20;;;;;;;;;2.67;1.67;;;;;15.92;41.21;102428.00;6246210;22;45178;-64
2022/12/27 13:03:16;;;;;;;;;3.33;1.33;;;;;15.81;41.40;102421.34;6244877;22;46234;-63
2022/12/27 13:06:00;;;;;;;;;0.67;0.67;;;;;15.67;41.38;102426.44;6245308;22;45263;-63
2022/12/27 13:08:38;;;;;;;;;1.00;1.00;;;;;15.60;42.11;102419.63;6218349;22;45351;-63
2022/12/27 13:11:25;;;;;;;;;1.33;1.33;;;;;15.60;41.79;102419.63;6218465;22;45248;-63
2022/12/27 13:14:20;;;;;;;;;2.67;1.00;;;;;15.55;42.32;102414.44;6243762;22;45306;-63
2022/12/27 13:17:03;;;;;;;;;3.00;1.67;;;;;15.59;42.49;102400.00;6245540;22;45246;-64
2022/12/27 13:19:37;;;;;;;;;1.67;1.67;;;;;15.62;42.20;102407.88;6219666;22;45380;-63
2022/12/27 13:22:24;;;;;;;;;3.00;3.00;;;;;15.49;42.85;102402.19;6246421;22;45376;-63
2022/12/27 13:25:09;;;;;;;;;2.33;2.00;;;;;15.35;42.70;102410.84;6246880;22;45164;-63
2022/12/27 13:27:57;;;;;;;;;0.67;0.67;;;;;15.12;43.05;102402.97;6246680;22;45186;-63
2022/12/27 13:30:33;;;;;;;;;2.67;2.67;;;;;14.76;43.19;102392.91;6247454;22;45333;-64
2022/12/27 13:33:20;;;;;;;;;3.00;1.67;;;;;14.52;43.72;102384.94;6219951;22;45440;-63
2022/12/27 13:36:23;;;;;;;;;2.33;2.00;;;;;14.30;43.96;102390.28;6246146;22;46082;-63
2022/12/27 13:39:04;;;;;;;;;1.00;1.00;;;;;14.07;44.15;102379.59;6219446;22;45404;-63
2022/12/27 13:41:42;;;;;;;;;3.00;2.00;;;;;13.89;44.53;102383.84;6247522;22;45783;-64
2022/12/27 13:44:14;;;;;;;;;3.00;2.00;;;;;13.78;45.22;102377.19;6220344;22;45322;-64
2022/12/27 13:46:42;;;;;;;;;1.00;1.00;;;;;13.59;45.28;102375.22;6246519;22;46052;-63
2022/12/27 13:49:33;;;;;;;;;2.00;2.00;;;;;13.44;45.82;102371.31;6246533;22;45230;-64
2022/12/27 13:52:15;;;;;;;;;2.00;1.00;;;;;13.31;46.10;102376.22;6219179;22;45311;-63
2022/12/27 13:54:41;;;;;;;;;5.00;1.67;;;;;13.23;46.25;102372.94;6219726;22;45459;-63
2022/12/27 13:57:35;;;;;;;;;0.00;0.00;;;;;13.16;46.75;102368.75;6246923;22;45721;-63
2022/12/27 14:00:18;;;;;;;;;1.00;1.00;;;;;13.01;46.93;102368.38;6245713;22;45623;-64
2022/12/27 14:03:00;;;;;;;;;1.00;1.00;;;;;12.94;47.46;102361.50;6219559;22;45472;-62
2022/12/27 14:06:01;;;;;;;;;2.00;0.00;;;;;12.90;47.40;102362.53;6219737;22;45173;-64
2022/12/27 14:08:39;;;;;;;;;1.00;1.00;;;;;12.81;47.73;102357.50;6183659;22;46307;-63
2022/12/27 14:11:35;;;;;;;;;2.00;0.33;;;;;12.72;47.93;102354.25;6219445;22;45588;-64
2022/12/27 14:14:01;;;;;;;;;1.00;1.00;;;;;12.61;48.27;102344.88;6246890;22;45186;-64
2022/12/27 14:16:44;;;;;;;;;3.00;1.00;;;;;12.53;48.58;102345.13;6245813;22;45177;-63
2022/12/27 14:19:43;;;;;;;;;1.67;1.67;;;;;12.44;48.75;102342.72;6219575;22;45249;-63
2022/12/27 14:22:08;;;;;;;;;1.00;1.00;;;;;12.36;49.15;102338.53;6194098;22;45349;-62
2022/12/27 14:24:41;;;;;;;;;1.67;1.67;;;;;12.33;49.61;102332.44;6247047;22;45296;-63
2022/12/27 14:27:10;;;;;;;;;0.00;0.00;;;;;12.29;49.52;102328.97;6193924;22;45286;-63
2022/12/27 14:30:08;;;;;;;;;1.67;0.67;;;;;12.24;49.85;102342.50;6246595;22;45289;-63
2022/12/27 14:32:55;;;;;;;;;1.67;1.33;;;;;12.22;50.02;102338.13;6219183;22;45287;-63
2022/12/27 14:35:51;;;;;;;;;1.00;1.00;;;;;12.20;50.32;102334.63;6246807;22;45402;-63
2022/12/27 14:38:43;;;;;;;;;0.00;0.00;;;;;12.17;50.79;102324.06;6220358;22;45241;-62
2022/12/27 14:41:34;;;;;;;;;1.00;1.00;;;;;12.10;50.67;102327.84;6219792;22;45586;-63
2022/12/27 14:44:05;;;;;;;;;1.33;1.33;;;;;12.02;51.05;102328.97;6246405;22;45300;-63
2022/12/27 14:47:03;;;;;;;;;3.00;1.67;;;;;12.02;51.23;102323.63;6246917;22;45414;-63
2022/12/27 14:49:31;;;;;;;;;3.00;2.00;;;;;12.00;51.69;102322.81;6220011;22;45421;-62
2022/12/27 14:52:32;;;;;;;;;2.00;2.00;;;;;11.98;51.79;102316.66;6246281;22;45344;-63
2022/12/27 14:55:38;;;;;;;;;2.00;2.00;;;;;11.92;51.85;102315.00;6246448;22;45230;-63
2022/12/27 14:58:16;;;;;;;;;0.33;0.33;;;;;11.83;52.20;102301.13;6218912;22;45273;-63
2022/12/27 15:01:25;;;;;;;;;2.00;2.00;;;;;11.77;52.61;102298.63;6219257;22;45249;-63
2022/12/27 15:04:05;;;;;;;;;4.33;2.00;;;;;11.70;52.65;102301.47;6198492;22;45513;-63
2022/12/27 15:06:52;;;;;;;;;3.00;2.00;;;;;11.66;53.10;102286.50;6246789;22;45538;-63
2022/12/27 15:09:32;;;;;;;;;2.00;2.00;;;;;11.58;53.53;102289.41;6246950;22;45170;-63
2022/12/27 15:12:24;;;;;;;;;2.67;2.00;;;;;11.51;53.66;102290.53;6219103;22;45295;-63
2022/12/27 15:15:00;;;;;;;;;2.00;2.00;;;;;11.46;53.93;102289.78;6192827;22;47950;-63
2022/12/27 15:17:50;;;;;;;;;1.33;1.00;;;;;11.40;54.43;102295.28;6219385;22;45866;-63
2022/12/27 15:20:43;;;;;;;;;1.00;1.00;;;;;11.34;54.89;102292.81;6246525;22;45269;-63
2022/12/27 15:23:27;;;;;;;;;1.00;1.00;;;;;11.28;55.16;102293.88;6219703;22;45439;-63
2022/12/27 15:26:10;;;;;;;;;2.67;2.33;;;;;11.20;55.65;102290.56;6245786;22;45260;-63
2022/12/27 15:28:55;;;;;;;;;2.00;2.00;;;;;11.13;56.09;102297.84;6219554;22;45257;-62
2022/12/27 15:31:33;;;;;;;;;4.00;4.00;;;;;11.09;55.97;102299.72;6246158;22;45216;-62
2022/12/27 15:34:17;;;;;;;;;2.33;2.00;;;;;11.05;56.81;102299.84;6218392;22;45352;-62
2022/12/27 15:36:45;;;;;;;;;3.00;2.00;;;;;11.04;56.79;102304.31;6246186;22;45238;-62
2022/12/27 15:39:32;;;;;;;;;2.00;2.00;;;;;11.01;56.71;102299.06;6218840;22;45248;-63
2022/12/27 15:42:28;;;;;;;;;4.00;3.00;;;;;10.99;57.38;102300.91;6245383;22;45299;-63
2022/12/27 15:45:10;;;;;;;;;2.33;2.33;;;;;10.95;57.30;102293.03;6218831;22;45169;-63
2022/12/27 15:47:54;;;;;;;;;2.33;1.33;;;;;10.91;57.55;102298.47;6218062;22;47476;-62
2022/12/27 15:50:31;;;;;;;;;3.00;2.33;;;;;10.87;58.19;102302.13;6246294;22;45644;-63
2022/12/27 15:53:14;;;;;;;;;4.33;1.33;;;;;10.81;58.04;102298.72;6246416;22;45312;-63
2022/12/27 15:55:54;;;;;;;;;3.33;2.33;;;;;10.75;58.17;102294.47;6246229;22;45371;-63
2022/12/27 15:58:24;;;;;;;;;4.00;3.33;;;;;10.70;58.42;102293.69;6246184;22;45517;-63
2022/12/27 16:01:14;;;;;;;;;3.67;3.33;;;;;10.64;58.86;102296.53;6243901;22;45307;-63
2022/12/27 16:03:42;;;;;;;;;2.67;2.33;;;;;10.61;59.04;102288.63;6246369;22;45313;-64
2022/12/27 16:06:08;;;;;;;;;6.33;3.00;;;;;10.54;59.06;102295.91;6219176;22;45543;-63
2022/12/27 16:08:40;;;;;;;;;4.00;2.00;;;;;10.51;59.25;102286.22;6244498;22;46961;-63
2022/12/27 16:11:11;;;;;;;;;4.33;4.00;;;;;10.47;59.37;102284.56;6246044;22;45244;-63
2022/12/27 16:13:47;;;;;;;;;4.33;3.00;;;;;10.43;59.48;102291.72;6194328;22;45710;-63
2022/12/27 16:16:35;;;;;;;;;6.00;5.00;;;;;10.40;59.77;102289.16;6219639;22;45516;-63
2022/12/27 16:19:51;;;;;;;;;5.00;5.00;;;;;10.35;60.01;102280.44;6235272;22;45273;-63
2022/12/27 16:22:30;;;;;;;;;5.00;4.00;;;;;10.30;60.20;102290.28;6157156;23;45272;-63
2022/12/27 16:24:56;;;;;;;;;4.33;4.00;;;;;10.26;60.57;102280.63;6182578;23;45277;-63
2022/12/27 16:27:30;;;;;;;;;4.00;4.00;;;;;10.20;60.61;102276.31;6196255;22;45399;-63
2022/12/27 16:29:56;;;;;;;;;5.00;4.00;;;;;10.16;60.76;102277.31;6244776;22;46624;-64
2022/12/27 16:32:23;;;;;;;;;5.33;4.00;;;;;10.15;61.32;102285.34;6218771;22;45376;-63
2022/12/27 16:34:53;;;;;;;;;5.33;5.33;;;;;10.13;61.51;102282.72;6218974;22;45210;-63
2022/12/27 16:37:22;;;;;;;;;3.33;3.33;;;;;10.15;61.98;102286.19;6217110;22;45750;-63
2022/12/27 16:40:23;;;;;;;;;3.33;3.33;;;;;10.16;61.51;102284.44;6215961;22;46044;-67
2022/12/27 16:42:51;;;;;;;;;5.00;5.00;;;;;10.15;61.42;102283.53;6217191;22;45600;-65
2022/12/27 16:45:37;;;;;;;;;3.33;3.33;;;;;10.15;61.15;102291.50;6244707;22;45658;-65
2022/12/27 16:48:24;;;;;;;;;4.33;4.33;;;;;10.16;61.59;102290.59;6209562;22;45408;-66
2022/12/27 16:51:12;;;;;;;;;6.67;5.67;;;;;10.20;62.00;102283.44;6244507;22;46084;-66
2022/12/27 16:54:03;;;;;;;;;5.00;5.00;;;;;10.20;61.90;102281.63;6219167;22;45261;-64
2022/12/27 16:56:40;;;;;;;;;5.67;5.33;;;;;10.22;62.03;102284.25;6218118;22;45351;-64
2022/12/27 16:59:44;;;;;;;;;8.33;7.00;;;;;10.26;62.17;102275.31;6246116;22;45233;-65
2022/12/27 17:02:43;;;;;;;;;7.00;7.00;;;;;10.27;62.37;102274.38;6247054;22;45224;-66
2022/12/27 17:05:14;;;;;;;;;7.00;7.00;;;;;10.23;62.54;102270.06;6246593;22;45302;-65
2022/12/27 17:07:51;;;;;;;;;12.00;5.33;;;;;10.16;62.39;102271.13;6246389;22;45247;-65
2022/12/27 17:10:26;;;;;;;;;9.00;9.00;;;;;10.05;62.90;102280.25;6246871;22;45562;-64
2022/12/27 17:13:08;;;;;;;;;9.33;7.33;;;;;9.94;63.12;102272.50;6246273;22;45316;-65
2022/12/27 17:15:33;;;;;;;;;11.67;10.33;;;;;9.86;63.30;102271.81;6246039;22;45245;-65
2022/12/27 17:18:08;;;;;;;;;7.00;7.00;;;;;9.75;64.07;102272.09;6245587;22;61590;-64
2022/12/27 17:20:35;;;;;;;;;10.67;8.67;;;;;9.71;64.59;102258.88;6246864;22;45115;-65
2022/12/27 17:23:02;;;;;;;;;14.67;12.67;;;;;9.63;64.70;102247.56;6246655;22;45963;-64
2022/12/27 17:25:43;;;;;;;;;11.67;11.67;;;;;9.55;64.75;102247.75;6245276;22;60016;-64
2022/12/27 17:28:22;;;;;;;;;13.00;12.00;;;;;9.48;65.66;102238.16;6219379;22;45371;-65
2022/12/27 17:31:13;;;;;;;;;15.00;12.33;;;;;9.34;65.64;102244.66;6246006;22;45489;-64
2022/12/27 17:33:51;;;;;;;;;14.00;13.67;;;;;9.31;66.11;102250.06;6218425;22;45359;-64
2022/12/27 17:36:25;;;;;;;;;20.33;14.67;;;;;9.36;66.56;102247.28;6246630;22;45241;-65